x

Orange Beach - 44 Nm Se Of Mobile, Al (42012) Wave Buoy

11:50am - Thu 26th May 2016 All times are CDT. -5 hours from GMT.

  • Sig Wave height 2.0ft
  • Swell Direction
  • Peak Period 5s
  • Average Period 4s
  • Wind
    13mph, 18mph gusts
  • Sea Temp 80°f
  • Air Temp 78°f
  • Sea Pressure 1019.8mb
  • Orange Beach - 44 Nm Se Of Mobile, Al
  • Orange Beach - 44 Nm Se Of Mobile, Al

More Historic Weather Station data

Upgrade to MSW Pro to gain access to the past 30 days of data for over 8000 Wavebouys and Weather Stations around the globe.

Join Pro

Comparision Forecast

View Surf forecast
   
Thu 05/26 11:50am 2ft 5s 4s 13 18 mph 1019.8mb 80f 78f
10:50am 1.6ft 5s 4s 11 13 mph 1020mb 80f 78f
9:50am 1.6ft 5s 4s 9 11 mph 1020.2mb 80f 78f
8:50am 1.6ft 5s 4s 11 13 mph 1019.4mb 80f 78f
7:50am 1.3ft 5s 4s 9 11 mph 1019.8mb 79f 78f
6:50am 1.6ft 5s 4s 7 9 mph 1019.9mb 80f 78f
5:50am 1.3ft 6s 4s 9
mph
1018.9mb 80f 77f
4:50am 1.3ft 6s 4s 9 11 mph 1018.2mb 80f 77f
3:50am 1.3ft 5s 4s 13 16 mph 1017.9mb 80f 77f
2:50am 1ft 5s 4s 9 11 mph 1018.3mb 80f 76f
1:50am 1ft 5s 4s 11 13 mph 1018.7mb 80f 76f
12:50am 1ft 4s 4s 9 11 mph 1019.4mb 80f 77f
Wed 05/25 11:50pm 1ft 3s 4s 7 9 mph 1020.2mb 80f 77f
10:50pm 1ft 5s 4s 7 9 mph 1020.5mb 80f 77f
9:50pm 1ft 3s 4s 4 7 mph 1021mb 80f 77f
8:50pm 1ft 3s 4s 9 13 mph 1020.1mb 80f 77f
7:50pm 1ft 3s 4s 7 9 mph 1020.2mb 80f 77f
6:50pm 1.3ft 3s 4s 9 11 mph 1019.7mb 80f 78f
5:50pm 1ft 3s 3s 9 11 mph 1019.7mb 81f 78f
4:50pm 1ft 3s 3s 7 9 mph 1020.4mb 80f 78f
3:50pm 1.3ft 3s 3s 7 9 mph 1020.9mb 80f 78f
2:50pm 1.3ft 3s 3s 9 11 mph 1021mb 80f 78f
1:50pm 1ft 2s 3s 9 11 mph 1021.6mb 79f 78f
12:50pm 1.3ft 3s 3s 7 9 mph 1021.6mb 79f 77f
11:50am 1.3ft 3s 3s 11 13 mph 1021.7mb 79f 77f
10:50am 1ft 3s 3s 11 13 mph 1021.6mb 78f 77f
9:50am 1.3ft 3s 3s 7 9 mph 1021.9mb 78f 77f
8:50am 1.3ft 3s 3s 9 11 mph 1021.2mb 78f 77f
7:50am 1ft 4s 3s 13 16 mph 1020.2mb 78f 76f
6:50am 1ft 4s 4s 9 11 mph 1020.2mb 78f 77f
5:50am 1ft 4s 4s 4
mph
1020mb 78f 77f
4:50am 1ft 4s 4s 2 4 mph 1019mb 78f 76f
3:50am 1ft 4s 4s 2 4 mph 1018.3mb 78f 76f
2:50am 1ft 4s 4s  -  2 mph 1018.6mb 78f 76f
1:50am 1ft 3s 3s 4
mph
1019.3mb 78f 76f
12:50am 1ft 3s 3s 7
mph
1019.9mb 78f 77f
Tue 05/24 11:50pm 1ft 3s 3s 4 9 mph 1020mb 79f 77f
10:50pm 1ft 3s 3s 7 9 mph 1020.3mb 78f 77f
9:50pm 1ft 3s 3s 9
mph
1020mb 79f 77f
8:50pm 0.7ft  -  3s 9 11 mph 1019.3mb 79f 77f
7:50pm 0.7ft  -  3s 11
mph
1018.8mb 79f 77f
6:50pm 0.7ft  -  3s 11 13 mph 1018.7mb 79f 78f
5:50pm 0.7ft  -  3s 11
mph
1018.9mb 79f 78f
4:50pm 0.7ft  -  3s 11
mph
1018.9mb 80f 78f
3:50pm 0.7ft  -  3s 9 11 mph 1019.2mb 80f 77f
2:50pm 0.7ft  -  3s 11 13 mph 1019.5mb 80f 77f
1:50pm 1ft 3s 3s 9 11 mph 1019.9mb 79f 77f
12:50pm 1ft 3s 3s 9
mph
1020mb 79f 76f
11:50am 1ft 4s 3s 9 11 mph 1020.1mb 79f 76f
10:50am 0.7ft  -  3s 9 13 mph 1019.4mb 78f 76f
9:50am 0.7ft  -  4s 11
mph
1019mb 78f 76f
8:50am 0.7ft  -  4s 7
mph
1018.9mb 78f 77f
7:50am 0.7ft  -  3s 2 4 mph 1018.2mb 78f 78f
6:50am 0.7ft  -  4s 2 4 mph 1017.6mb 78f 78f
5:50am 0.7ft  -  4s 7
mph
1016.8mb 78f 76f
4:50am 0.7ft  -  4s 4 7 mph 1016.7mb 78f 76f
3:50am 0.7ft  -  4s 7
mph
1015.9mb 78f 76f
2:50am 0.7ft  -  4s 7 9 mph 1015.8mb 79f 76f
1:50am 0.7ft  -  5s 7 9 mph 1015.9mb 79f 76f
12:50am 0.7ft  -  4s 7
mph
1015.9mb 79f 76f
Mon 05/23 11:50pm 0.7ft  -  4s 7
mph
1015.8mb 79f 77f
10:50pm 0.7ft  -  4s 4 7 mph 1015.6mb 78f 77f
9:50pm 0.7ft  -  4s 4 7 mph 1015.4mb 79f 77f
8:50pm 0.7ft  -  4s 4 7 mph 1014.7mb 79f 77f
7:50pm 0.7ft  -  4s 2 4 mph 1014.6mb 79f 77f
5:50pm 0.7ft  -  4s 7 9 mph 1014.5mb 80f 78f
4:50pm 0.7ft  -  4s 7 9 mph 1014.6mb 80f 78f
3:50pm 1ft 4s 3s 7 9 mph 1014.7mb 80f 78f
2:50pm 1ft 3s 3s 4
mph
1015.3mb 79f 77f
1:50pm 1ft 3s 4s 4
mph
1015.4mb 79f 77f
12:50pm 1ft 3s 4s 7 9 mph 1015.8mb 78f 77f
11:50am 1ft 5s 4s 4 7 mph 1015.9mb 78f 77f
10:50am 1.3ft 5s 4s 7 9 mph 1015.6mb 78f 77f
9:50am 1ft 5s 4s 7 9 mph 1015.5mb 77f 76f
8:50am 1.3ft 3s 3s 9 11 mph 1015.5mb 77f 76f
7:50am 1ft 5s 3s 9 11 mph 1015.3mb 77f 76f
6:50am 1.3ft 3s 3s 7 9 mph 1015.1mb 77f 75f
5:50am 1ft 5s  -  9 11 mph 1014.1mb 77f 75f
4:50am 1.3ft 6s 3s 11
mph
1013.8mb 77f 75f
3:50am 1ft 6s 3s 11 13 mph 1013.4mb 77f 75f
2:50am 1.3ft 6s 3s 9 11 mph 1013.4mb 78f 75f
1:50am 1.3ft 6s 3s 11 13 mph 1013.4mb 78f 76f
12:50am 1.3ft 3s 3s 13
mph
1013.7mb 78f 76f
Sun 05/22 11:50pm 1.3ft 3s 3s 13 16 mph 1013.7mb 78f 77f
10:50pm 1.6ft 3s 3s 13 16 mph 1013.8mb 78f 77f
9:50pm 1.6ft 3s 3s 13 16 mph 1013.8mb 78f 78f
8:50pm 1.6ft 3s 3s 16 20 mph 1013.3mb 78f 79f
7:50pm 1.3ft 6s 4s 13 16 mph 1012.7mb 78f 80f
6:50pm 1.3ft 6s 4s 11 13 mph 1012.5mb 79f 80f
5:50pm 1.3ft 7s 4s 11
mph
1012.7mb 79f 80f